Terminal Aerodrome Forecast
Issued by NWS

Home | Current Version | Previous Version | Text Only | Print | Product List | Glossary On
Versions: 1 2 3 4 5 6 7 8 9 10 11 12 13 14 15 16 17
000
FTAK31 PAJN 012300
TAFAJN
TAF
PAJN 012320Z 0200/0224 26004KT P6SM FEW040
     FM020300 VRB03KT P6SM SKC
     FM021200 10003KT P6SM BCFG FEW002
     FM021700 10008KT P6SM SCT150
     FM022100 10010KT P6SM VCSH BKN050 OVC100=

USA.gov is the U.S. government's official web portal to all federal, state and local government web resources and services.